Time;durP1;ratioP1;P1;durP2;ratioP2;P2;SDS_P1;SDS_P2;PMS_P1;PMS_P2;Temp;Humidity;BMP_temperature;BMP_pressure;BME280_temperature;BME280_humidity;BME280_pressure;Samples;Min_cycle;Max_cycle;Signal;HPM_P1;HPM_P2
2022/01/23 00:00:36;;;;;;;11.82;6.15;;;3.10;99.90;;;2.33;100.00;98838.41;5006280;28;20037;-84
2022/01/23 00:02:36;;;;;;;8.85;5.88;;;3.10;99.90;;;2.09;100.00;98792.84;4999488;28;20045;-84
2022/01/23 00:05:06;;;;;;;9.00;5.72;;;3.10;99.90;;;2.16;100.00;98804.25;5004006;28;23244;-85
2022/01/23 00:07:34;;;;;;;10.30;6.30;;;3.20;99.90;;;2.40;100.00;98845.47;5002990;28;20030;-84
2022/01/23 00:10:01;;;;;;;8.70;5.40;;;3.10;99.90;;;2.03;100.00;98771.03;4988031;28;20163;-85
2022/01/23 00:12:31;;;;;;;8.60;5.72;;;3.20;99.90;;;2.19;100.00;98793.91;5006367;28;20504;-84
2022/01/23 00:17:40;;;;;;;9.48;5.85;;;3.20;99.90;;;2.25;100.00;98799.22;5007253;28;20113;-84
2022/01/23 00:20:12;;;;;;;8.45;5.78;;;3.20;99.90;;;2.40;100.00;98826.38;5005128;28;20492;-84
2022/01/23 00:22:47;;;;;;;9.80;5.80;;;3.20;99.90;;;2.09;100.00;98785.03;5023207;28;20033;-84
2022/01/23 00:30:45;;;;;;;9.30;5.63;;;3.30;99.90;;;2.08;100.00;98761.56;5009038;28;20521;-84
2022/01/23 00:33:12;;;;;;;9.65;5.80;;;3.20;99.90;;;2.48;100.00;98836.09;5003496;28;20026;-84
2022/01/23 00:35:41;;;;;;;9.60;5.50;;;3.30;99.90;;;2.30;100.00;98796.72;5005312;28;20021;-84
2022/01/23 00:38:08;;;;;;;8.18;5.47;;;3.30;99.90;;;2.46;100.00;98826.50;5004936;28;20078;-84
2022/01/23 00:40:36;;;;;;;9.32;5.60;;;3.30;99.90;;;2.37;100.00;98808.09;5004054;28;20061;-84
2022/01/23 00:43:13;;;;;;;9.90;6.30;;;3.30;99.90;;;2.54;100.00;98829.25;5002433;28;20473;-84
2022/01/23 00:45:44;;;;;;;8.68;5.75;;;3.30;99.90;;;2.46;100.00;98808.28;4991775;28;20033;-85
2022/01/23 00:48:12;;;;;;;8.43;5.47;;;3.40;99.90;;;2.41;100.00;98802.97;5007939;28;20030;-85
2022/01/23 00:50:41;;;;;;;8.77;5.82;;;3.40;99.90;;;2.55;100.00;98815.34;4988696;28;20030;-85
2022/01/23 00:53:10;;;;;;;10.77;6.78;;;3.40;99.90;;;2.60;100.00;98817.22;5004429;28;20057;-85
2022/01/23 00:55:46;;;;;;;9.88;5.95;;;3.40;99.90;;;2.64;100.00;98823.34;5004896;28;20048;-84
2022/01/23 00:58:14;;;;;;;9.77;5.75;;;3.40;99.90;;;2.51;100.00;98805.75;5004023;28;20296;-85
2022/01/23 01:00:41;;;;;;;8.45;5.82;;;3.40;99.90;;;2.37;100.00;98793.38;5020560;28;20096;-83
2022/01/23 01:03:08;;;;;;;9.27;5.80;;;3.40;99.90;;;2.30;100.00;98791.50;4992524;28;20382;-84
2022/01/23 01:05:34;;;;;;;7.53;5.05;;;3.40;99.90;;;2.36;100.00;98791.59;5014284;28;20116;-84
2022/01/23 01:08:03;;;;;;;7.30;5.00;;;3.40;99.90;;;2.55;100.00;98828.38;4986522;28;20033;-84
2022/01/23 01:10:37;;;;;;;6.55;4.43;;;3.40;99.90;;;2.61;100.00;98839.78;5003806;28;20052;-84
2022/01/23 01:13:05;;;;;;;8.35;5.32;;;3.30;99.90;;;2.50;100.00;98817.91;5009671;28;20017;-84
2022/01/23 01:15:54;;;;;;;7.93;5.15;;;3.40;99.90;;;2.61;100.00;98834.56;5017991;23;20512;-47
2022/01/23 01:32:06;;;;;;;7.50;4.85;;;3.40;99.90;;;2.59;100.00;98823.25;4999499;28;20403;-46
2022/01/23 01:34:47;;;;;;;9.68;6.15;;;3.40;99.90;;;2.64;100.00;98825.97;4999963;28;20034;-48
2022/01/23 01:37:13;;;;;;;8.35;5.25;;;3.40;99.90;;;2.68;100.00;98822.56;5003106;28;20032;-47
2022/01/23 01:39:39;;;;;;;9.00;5.40;;;3.40;99.90;;;2.71;100.00;98822.63;5003559;28;20034;-47
2022/01/23 01:42:05;;;;;;;7.80;5.30;;;3.50;99.90;;;2.75;100.00;98823.53;4998921;28;20034;-46
2022/01/23 01:44:31;;;;;;;9.65;6.22;;;3.50;99.90;;;2.72;100.00;98833.91;5002125;28;20037;-45
2022/01/23 01:46:57;;;;;;;9.73;5.68;;;3.50;99.90;;;2.74;100.00;98830.44;5000718;28;20049;-46
2022/01/23 01:49:29;;;;;;;7.78;5.30;;;3.50;99.90;;;2.76;100.00;98838.31;5002392;28;20412;-48
2022/01/23 01:51:58;;;;;;;7.68;5.28;;;3.50;99.90;;;2.74;100.00;98833.06;4998187;28;20026;-45
2022/01/23 01:54:26;;;;;;;9.40;5.28;;;3.50;99.90;;;2.66;100.00;98838.16;5004225;28;20447;-43
2022/01/23 01:57:06;;;;;;;9.02;5.15;;;3.50;99.90;;;2.58;100.00;98833.66;4998650;28;20040;-44
2022/01/23 02:10:27;;;;;;;14.15;7.72;;;3.20;99.90;;;2.32;100.00;98839.25;4999809;28;20048;-48
2022/01/23 02:13:11;;;;;;;11.77;6.88;;;3.20;99.90;;;2.26;100.00;98829.63;4995903;28;20034;-45
2022/01/23 02:57:12;;;;;;;13.13;8.18;;;2.80;99.90;;;2.10;100.00;98785.94;4982644;28;20400;-48
2022/01/23 02:59:39;;;;;;;14.40;8.55;;;2.90;99.90;;;2.13;100.00;98777.28;5000374;28;20057;-45
2022/01/23 03:04:35;;;;;;;13.85;8.68;;;3.00;99.90;;;2.22;100.00;98793.06;5002522;28;20057;-47
2022/01/23 03:07:18;;;;;;;14.38;8.27;;;3.00;99.90;;;2.24;100.00;98797.47;5003462;28;20270;-47
2022/01/23 03:33:44;;;;;;;13.27;8.50;;;3.20;99.90;;;2.49;100.00;98826.53;5001786;28;20382;-45
2022/01/23 03:36:09;;;;;;;15.32;9.05;;;3.20;99.90;;;2.48;100.00;98819.59;5006253;28;20526;-45
2022/01/23 03:38:35;;;;;;;13.07;8.45;;;3.30;99.90;;;2.50;100.00;98824.84;4992513;28;20488;-48
2022/01/23 03:41:01;;;;;;;13.60;7.95;;;3.20;99.90;;;2.53;100.00;98832.69;4995632;28;20033;-48
2022/01/23 03:43:30;;;;;;;13.70;8.40;;;3.30;99.90;;;2.56;100.00;98832.75;4993408;28;20069;-44
2022/01/23 03:50:51;;;;;;;10.27;7.72;;;3.30;99.90;;;2.55;100.00;98828.38;4997637;28;20038;-45
2022/01/23 03:53:17;;;;;;;13.20;8.40;;;3.30;99.90;;;2.43;100.00;98814.28;5002289;28;20030;-50
2022/01/23 03:55:44;;;;;;;13.43;8.00;;;3.30;99.90;;;2.46;100.00;98827.38;5003932;28;20037;-45
2022/01/23 03:58:09;;;;;;;12.02;8.07;;;3.20;99.90;;;2.46;100.00;98829.13;5004141;28;20037;-44
2022/01/23 04:00:35;;;;;;;15.10;8.82;;;3.30;99.90;;;2.51;100.00;98842.19;5001955;28;20033;-48
2022/01/23 04:03:01;;;;;;;13.60;9.07;;;3.20;99.90;;;2.38;100.00;98835.91;4982797;28;20390;-46
2022/01/23 04:05:27;;;;;;;14.68;8.50;;;3.20;99.90;;;2.38;100.00;98836.75;5000893;28;20030;-46
2022/01/23 04:07:53;;;;;;;12.90;8.38;;;3.20;99.90;;;2.42;100.00;98850.72;5004599;28;20057;-46
2022/01/23 04:10:22;;;;;;;16.23;8.68;;;3.20;99.90;;;2.42;100.00;98841.19;4998426;28;20045;-48
2022/01/23 04:12:53;;;;;;;13.77;8.63;;;3.20;99.90;;;2.37;100.00;98841.94;5000481;28;20029;-45
2022/01/23 05:01:04;;;;;;;17.05;10.63;;;3.30;99.90;;;2.54;100.00;98831.84;5006107;28;20044;-46
2022/01/23 05:06:20;;;;;;;15.43;10.40;;;3.30;99.90;;;2.57;100.00;98824.09;4999298;28;20260;-45
2022/01/23 05:08:46;;;;;;;16.83;10.85;;;3.30;99.90;;;2.58;100.00;98810.19;4988951;28;20411;-44
2022/01/23 05:11:13;;;;;;;16.52;10.63;;;3.30;99.90;;;2.59;100.00;98809.38;4999891;28;20187;-45
2022/01/23 05:13:38;;;;;;;16.67;10.05;;;3.30;99.90;;;2.60;100.00;98812.00;4999325;28;20033;-49
2022/01/23 05:16:05;;;;;;;16.42;10.65;;;3.30;99.90;;;2.62;100.00;98817.22;5001191;28;20093;-45
2022/01/23 05:18:34;;;;;;;14.77;9.23;;;3.40;99.90;;;2.59;100.00;98818.06;5003565;28;20021;-47
2022/01/23 05:21:12;;;;;;;16.15;10.20;;;3.40;99.90;;;2.64;100.00;98837.25;5003639;28;20038;-46
2022/01/23 05:23:38;;;;;;;15.88;10.65;;;3.40;99.90;;;2.64;100.00;98844.19;5008805;28;20025;-48
2022/01/23 05:26:04;;;;;;;15.68;9.82;;;3.40;99.90;;;2.61;100.00;98841.53;4998545;28;20036;-42
2022/01/23 05:28:29;;;;;;;15.45;9.23;;;3.40;99.90;;;2.56;100.00;98835.34;4999772;28;20034;-48
2022/01/23 05:30:55;;;;;;;15.48;9.95;;;3.30;99.90;;;2.59;100.00;98835.41;4987592;28;20029;-45
2022/01/23 05:33:21;;;;;;;18.95;10.80;;;3.30;99.90;;;2.51;100.00;98837.00;4995631;28;20041;-42
2022/01/23 05:35:46;;;;;;;17.17;10.38;;;3.30;99.90;;;2.46;100.00;98844.75;4996761;28;20285;-47
2022/01/23 05:38:12;;;;;;;21.50;10.93;;;3.30;99.90;;;2.37;100.00;98847.16;5010434;28;20025;-45
2022/01/23 05:40:39;;;;;;;15.27;9.52;;;3.20;99.90;;;2.34;100.00;98847.97;5001360;28;20116;-45
2022/01/23 05:43:05;;;;;;;15.45;9.40;;;3.20;99.90;;;2.36;100.00;98838.47;4999177;28;20330;-47
2022/01/23 05:45:31;;;;;;;17.52;10.88;;;3.10;99.90;;;2.38;100.00;98841.09;5004000;28;20030;-47
2022/01/23 05:47:56;;;;;;;14.48;9.32;;;3.20;99.90;;;2.39;100.00;98837.66;5010011;28;20515;-44
2022/01/23 05:50:22;;;;;;;17.58;10.55;;;3.10;99.90;;;2.35;100.00;98822.81;5003709;28;20077;-43
2022/01/23 05:52:48;;;;;;;18.70;11.35;;;3.10;99.90;;;2.34;100.00;98834.97;4999815;28;20492;-45
2022/01/23 05:55:15;;;;;;;19.23;12.07;;;3.10;99.90;;;2.37;100.00;98839.34;5000649;28;20030;-48
2022/01/23 05:57:40;;;;;;;17.65;11.00;;;3.10;99.90;;;2.38;100.00;98841.97;5002670;28;20029;-44
2022/01/23 06:00:07;;;;;;;15.75;10.25;;;3.10;99.90;;;2.40;100.00;98852.41;5002413;28;20384;-47
2022/01/23 06:02:33;;;;;;;16.42;10.48;;;3.20;99.90;;;2.41;100.00;98855.06;4996761;28;20030;-44
2022/01/23 06:04:58;;;;;;;17.20;10.30;;;3.20;99.90;;;2.43;100.00;98855.97;5000170;28;20048;-45
2022/01/23 06:07:24;;;;;;;19.58;10.82;;;3.20;99.90;;;2.45;100.00;98858.59;5000497;28;20042;-46
2022/01/23 06:09:50;;;;;;;17.98;11.02;;;3.20;99.90;;;2.46;100.00;98857.75;4999541;28;20357;-44
2022/01/23 06:12:16;;;;;;;18.38;10.90;;;3.20;99.90;;;2.50;100.00;98861.31;4994230;28;20370;-47
2022/01/23 06:14:42;;;;;;;18.55;11.45;;;3.20;99.90;;;2.53;100.00;98866.53;4993349;28;20486;-45
2022/01/23 06:17:07;;;;;;;19.30;11.60;;;3.30;99.90;;;2.52;100.00;98877.81;4996194;28;20037;-42
2022/01/23 06:19:35;;;;;;;22.08;11.52;;;3.30;99.90;;;2.53;100.00;98879.56;5001023;28;20496;-41
2022/01/23 06:22:00;;;;;;;18.40;10.85;;;3.30;99.90;;;2.48;100.00;98874.28;5002993;28;20483;-48
2022/01/23 06:24:29;;;;;;;18.58;11.80;;;3.30;99.90;;;2.44;100.00;98875.06;5003353;28;20048;-46
2022/01/23 06:27:01;;;;;;;17.35;10.23;;;3.20;99.90;;;2.43;100.00;98871.59;5004194;28;20083;-48
2022/01/23 06:29:31;;;;;;;18.15;11.15;;;3.20;99.90;;;2.45;100.00;98862.06;4998404;28;20459;-44
2022/01/23 06:32:00;;;;;;;19.88;11.45;;;3.20;99.90;;;2.46;100.00;98863.84;5002599;28;20524;-48
2022/01/23 06:34:26;;;;;;;20.42;11.48;;;3.20;99.90;;;2.41;100.00;98862.00;5002969;28;20132;-49
2022/01/23 06:36:53;;;;;;;24.45;13.45;;;3.20;99.90;;;2.49;100.00;98870.81;5002058;28;20049;-44
2022/01/23 06:39:21;;;;;;;19.08;12.38;;;3.30;99.90;;;2.50;100.00;98872.59;5002051;28;20037;-44
2022/01/23 06:41:46;;;;;;;25.50;14.10;;;3.30;99.90;;;2.53;100.00;98874.34;5000494;28;20145;-44
2022/01/23 06:44:12;;;;;;;23.90;13.88;;;3.20;99.90;;;2.50;100.00;98871.72;4996458;28;20172;-44
2022/01/23 06:46:39;;;;;;;21.65;13.07;;;3.30;99.90;;;2.55;100.00;98881.38;4999911;28;20442;-44
2022/01/23 06:49:06;;;;;;;22.45;13.45;;;3.30;99.90;;;2.50;100.00;98869.13;5001434;28;20037;-48
2022/01/23 06:51:32;;;;;;;22.70;13.40;;;3.30;99.90;;;2.58;100.00;98878.78;5001302;28;20120;-47
2022/01/23 06:53:58;;;;;;;22.33;13.10;;;3.30;99.90;;;2.58;100.00;98891.81;5000258;28;20048;-47
2022/01/23 06:56:24;;;;;;;23.63;14.23;;;3.30;99.90;;;2.59;100.00;98884.91;4996876;28;20026;-48
2022/01/23 06:58:52;;;;;;;21.05;13.13;;;3.30;99.90;;;2.53;100.00;98879.56;4998401;28;20397;-45
2022/01/23 07:01:17;;;;;;;22.77;13.98;;;3.30;99.90;;;2.58;100.00;98894.44;4998575;28;20594;-47
2022/01/23 07:03:43;;;;;;;22.17;13.00;;;3.30;99.90;;;2.60;100.00;98900.56;4998257;28;20030;-47
2022/01/23 07:06:09;;;;;;;22.70;12.80;;;3.30;99.90;;;2.56;100.00;98903.94;4993712;28;20033;-42
2022/01/23 07:08:35;;;;;;;19.67;12.52;;;3.30;99.90;;;2.57;100.00;98897.91;5001613;28;20056;-45
2022/01/23 07:11:01;;;;;;;21.83;13.30;;;3.30;99.90;;;2.53;100.00;98901.31;5006143;28;20094;-45
2022/01/23 07:13:26;;;;;;;22.85;14.00;;;3.30;99.90;;;2.58;100.00;98912.66;5000061;28;20038;-47
2022/01/23 07:15:52;;;;;;;24.13;13.52;;;3.30;99.90;;;2.60;100.00;98915.28;4999300;28;20037;-46
2022/01/23 07:18:18;;;;;;;21.75;13.35;;;3.30;99.90;;;2.61;100.00;98914.47;4999478;28;20026;-47
2022/01/23 07:20:46;;;;;;;21.35;12.45;;;3.40;99.90;;;2.61;100.00;98924.88;4998336;28;20038;-47
2022/01/23 07:23:12;;;;;;;20.80;12.32;;;3.40;99.90;;;2.60;100.00;98921.41;4991738;28;20034;-47
2022/01/23 07:25:39;;;;;;;20.42;13.32;;;3.40;99.90;;;2.62;100.00;98926.63;4992394;28;20360;-45
2022/01/23 07:28:09;;;;;;;23.88;13.82;;;3.40;99.90;;;2.62;100.00;98926.63;4991266;28;20029;-48
2022/01/23 07:33:13;;;;;;;21.52;12.73;;;3.40;99.90;;;2.65;100.00;98922.34;5001549;28;20030;-48
2022/01/23 07:35:38;;;;;;;18.50;11.82;;;3.40;99.90;;;2.68;100.00;98929.34;4999489;28;20033;-46
2022/01/23 07:38:04;;;;;;;21.25;12.65;;;3.40;99.90;;;2.70;100.00;98921.56;4999945;28;20083;-45
2022/01/23 07:40:30;;;;;;;20.33;12.75;;;3.40;99.90;;;2.65;100.00;98924.09;5001434;28;20036;-47
2022/01/23 07:42:56;;;;;;;19.13;12.35;;;3.40;99.90;;;2.67;100.00;98930.19;5004905;28;20056;-45
2022/01/23 07:45:21;;;;;;;25.02;13.38;;;3.40;99.90;;;2.71;100.00;98928.53;4998857;28;20044;-46
2022/01/23 07:47:47;;;;;;;21.15;13.27;;;3.40;99.90;;;2.74;100.00;98924.25;4999845;28;20420;-48
2022/01/23 07:50:13;;;;;;;20.45;13.35;;;3.50;99.90;;;2.80;100.00;98931.28;5003415;28;20030;-46
2022/01/23 07:52:39;;;;;;;23.92;14.60;;;3.50;99.90;;;2.84;100.00;98936.63;4998601;28;20370;-44
2022/01/23 07:55:09;;;;;;;22.88;14.45;;;3.60;99.90;;;2.92;100.00;98941.09;5001546;28;20021;-45
2022/01/23 07:57:35;;;;;;;22.23;13.48;;;3.60;99.90;;;2.94;100.00;98931.56;5000856;28;20026;-45
2022/01/23 08:00:06;;;;;;;25.48;13.57;;;3.70;99.90;;;2.92;100.00;98933.25;4997082;28;20037;-49
2022/01/23 08:02:32;;;;;;;22.48;13.32;;;3.70;99.90;;;2.96;100.00;98940.28;5000105;28;20033;-47
2022/01/23 08:04:57;;;;;;;24.45;14.20;;;3.70;99.90;;;3.02;100.00;98951.72;5002252;28;20119;-50
2022/01/23 08:09:59;;;;;;;24.08;14.30;;;3.80;99.90;;;3.11;100.00;98956.22;5000262;28;20034;-48
2022/01/23 08:12:30;;;;;;;23.45;14.65;;;3.80;99.90;;;3.16;100.00;98957.16;5003175;28;20484;-48
2022/01/23 08:14:58;;;;;;;23.13;13.40;;;3.90;99.90;;;3.20;100.00;98963.31;4999604;28;20025;-51
2022/01/23 08:17:24;;;;;;;20.70;13.20;;;3.90;99.90;;;3.18;100.00;98957.22;4998642;28;20034;-49
2022/01/23 08:19:55;;;;;;;22.63;13.35;;;3.90;99.90;;;3.25;100.00;98956.47;4999649;28;20365;-45
2022/01/23 08:22:23;;;;;;;21.33;13.05;;;3.90;99.90;;;3.25;100.00;98954.72;4996288;28;20268;-45
2022/01/23 08:24:49;;;;;;;18.58;12.18;;;4.00;99.90;;;3.34;100.00;98959.22;5000664;28;20530;-48
2022/01/23 08:27:18;;;;;;;18.45;11.75;;;4.00;99.90;;;3.37;100.00;98959.25;4998206;28;20030;-49
2022/01/23 08:29:44;;;;;;;16.98;11.55;;;4.10;99.90;;;3.39;100.00;98968.00;4998916;28;20026;-49
2022/01/23 08:32:10;;;;;;;18.85;11.48;;;4.10;99.90;;;3.44;100.00;98973.28;4994578;28;20073;-50
2022/01/23 08:34:37;;;;;;;21.27;12.52;;;4.10;99.90;;;3.51;100.00;98972.53;4992161;28;20041;-48
2022/01/23 08:37:06;;;;;;;23.90;13.98;;;4.20;99.90;;;3.55;100.00;98969.13;4986553;28;20116;-48
2022/01/23 08:39:35;;;;;;;30.70;15.43;;;4.20;99.90;;;3.60;100.00;98970.06;4991726;28;20046;-45
2022/01/23 08:42:09;;;;;;;23.73;14.90;;;4.30;99.90;;;3.68;100.00;98967.59;4998821;28;20715;-47
2022/01/23 08:44:35;;;;;;;27.42;15.82;;;4.40;99.90;;;3.82;100.00;98986.06;5005925;28;20408;-42
2022/01/23 08:47:02;;;;;;;26.77;14.73;;;4.50;99.90;;;3.86;100.00;98979.16;4995811;28;20069;-45
2022/01/23 08:49:29;;;;;;;26.45;14.75;;;4.60;99.90;;;3.92;100.00;98984.47;5002934;28;20026;-45
2022/01/23 08:51:57;;;;;;;22.33;14.25;;;4.60;99.90;;;4.01;100.00;98979.41;4983714;28;20057;-46
2022/01/23 08:54:27;;;;;;;25.10;15.23;;;4.70;99.90;;;4.06;100.00;98971.63;5000589;28;20032;-47
2022/01/23 08:56:53;;;;;;;25.63;14.82;;;4.80;99.90;;;4.13;100.00;98970.88;5000215;28;20548;-45
2022/01/23 08:59:19;;;;;;;23.40;14.20;;;4.80;99.90;;;4.19;100.00;98969.19;4998300;28;20069;-48
2022/01/23 09:01:47;;;;;;;23.10;14.82;;;4.90;99.90;;;4.25;100.00;98964.91;4997169;28;20026;-45
2022/01/23 09:04:15;;;;;;;23.08;13.85;;;4.90;99.90;;;4.23;100.00;98964.91;4996716;28;20527;-44
2022/01/23 09:06:45;;;;;;;24.17;13.70;;;4.90;99.90;;;4.23;100.00;98959.66;4997419;28;20435;-46
2022/01/23 09:09:19;;;;;;;25.60;14.32;;;4.90;99.90;;;4.36;100.00;98956.38;4995415;28;20034;-45
2022/01/23 09:12:20;;;;;;;19.17;11.15;;;5.00;99.90;;;4.46;100.00;98952.13;4993345;28;20394;-45
2022/01/23 09:14:35;;;;;;;23.10;13.57;;;5.10;99.90;;;4.57;100.00;98950.50;4997492;28;20036;-45
2022/01/23 09:17:03;;;;;;;25.73;15.48;;;5.20;99.90;;;4.61;100.00;98953.19;4994162;28;20117;-44
2022/01/23 09:19:30;;;;;;;22.75;14.93;;;5.30;99.90;;;4.70;100.00;98961.13;4994782;28;20042;-45
2022/01/23 09:21:57;;;;;;;28.35;17.33;;;5.40;99.90;;;4.59;100.00;98955.75;4989626;28;20121;-47
2022/01/23 09:24:25;;;;;;;28.55;16.25;;;5.40;99.90;;;4.59;100.00;98961.00;4991707;28;20112;-43
2022/01/23 09:26:55;;;;;;;29.33;16.75;;;5.30;99.90;;;4.62;100.00;98958.44;4995212;28;20030;-44
2022/01/23 09:29:35;;;;;;;22.48;14.88;;;5.30;99.90;;;4.66;100.00;98964.56;4996972;28;20032;-44
2022/01/23 09:32:21;;;;;;;29.10;15.40;;;5.30;99.90;;;4.72;100.00;98962.00;4992203;28;20026;-47
2022/01/23 09:34:48;;;;;;;24.50;14.82;;;5.40;99.90;;;4.81;100.00;98959.53;4998399;28;20398;-45
2022/01/23 09:37:18;;;;;;;26.17;16.23;;;5.40;99.90;;;5.00;100.00;98957.97;5001376;28;20491;-46
2022/01/23 09:39:49;;;;;;;28.85;16.80;;;5.60;99.90;;;4.99;100.00;98956.22;4996575;28;20057;-45
2022/01/23 09:42:23;;;;;;;26.38;14.80;;;5.70;99.90;;;5.13;100.00;98951.13;4999204;28;20558;-44
2022/01/23 09:45:04;;;;;;;26.02;16.35;;;5.80;99.90;;;5.26;100.00;98954.75;4996520;28;20030;-45
2022/01/23 09:47:32;;;;;;;29.52;17.33;;;5.90;99.90;;;5.38;100.00;98957.44;4996010;28;20029;-44
2022/01/23 09:50:00;;;;;;;27.67;16.27;;;6.00;99.90;;;5.41;100.00;98962.72;4976033;28;20048;-43
2022/01/23 09:52:32;;;;;;;27.00;16.60;;;6.10;99.90;;;5.46;100.00;98949.69;4984006;28;20092;-41
2022/01/23 09:55:06;;;;;;;30.10;17.23;;;6.10;99.90;;;5.34;100.00;98953.06;4991745;28;20029;-46
2022/01/23 09:57:33;;;;;;;23.83;15.48;;;6.10;99.90;;;5.41;100.00;98952.25;4996344;28;21042;-47
2022/01/23 10:00:02;;;;;;;25.42;15.98;;;6.10;99.90;;;5.49;100.00;98960.16;4998258;28;20117;-46
2022/01/23 10:02:28;;;;;;;25.30;15.15;;;6.20;99.90;;;5.58;100.00;98960.25;4991596;28;20062;-47
2022/01/23 10:04:55;;;;;;;29.92;16.10;;;6.20;99.90;;;5.50;100.00;98957.56;4996487;28;20627;-45
2022/01/23 10:07:22;;;;;;;25.30;15.45;;;6.20;99.90;;;5.33;100.00;98946.09;4997160;28;20130;-47
2022/01/23 10:09:54;;;;;;;22.52;13.48;;;6.20;99.90;;;5.53;100.00;98964.56;4993254;28;20136;-47
2022/01/23 10:12:26;;;;;;;18.75;10.95;;;6.20;99.90;;;5.68;100.00;98948.97;4996347;28;20152;-43
2022/01/23 10:14:53;;;;;;;18.70;10.37;;;6.30;99.90;;;5.83;100.00;98949.94;4998945;28;20057;-48
2022/01/23 10:17:19;;;;;;;19.00;10.77;;;6.40;99.90;;;5.85;99.89;98954.34;4997556;28;20721;-47
2022/01/23 10:19:45;;;;;;;18.65;10.90;;;6.50;99.90;;;5.86;98.25;98955.22;4999449;28;20330;-45
2022/01/23 10:22:12;;;;;;;20.17;11.15;;;6.60;99.90;;;6.05;98.48;98962.38;4997047;28;20405;-48
2022/01/23 10:24:38;;;;;;;18.23;11.27;;;6.60;99.90;;;5.94;96.96;98958.78;4996504;28;20033;-48
2022/01/23 10:27:04;;;;;;;16.05;10.73;;;6.60;99.90;;;6.00;97.46;98963.19;4995670;28;20492;-50
2022/01/23 10:29:35;;;;;;;19.02;12.35;;;6.60;99.90;;;5.90;95.05;98968.34;4998047;28;20034;-46
2022/01/23 10:32:25;;;;;;;17.48;11.18;;;6.70;99.90;;;5.97;96.05;98966.66;4995207;28;20041;-47
2022/01/23 10:35:00;;;;;;;16.15;10.35;;;6.60;99.90;;;5.98;96.84;98967.56;4996620;28;20034;-48
2022/01/23 10:37:32;;;;;;;18.27;11.02;;;6.60;99.90;;;6.09;95.19;98966.75;4993597;28;20044;-46
2022/01/23 10:40:11;;;;;;;16.98;11.48;;;6.70;99.90;;;5.95;94.22;98944.78;4991182;28;20726;-46
2022/01/23 10:48:35;;;;;;;17.15;11.38;;;6.90;99.90;;;6.31;93.37;98951.13;5003389;28;20044;-46
2022/01/23 10:51:19;;;;;;;15.23;10.65;;;6.90;99.90;;;6.34;91.79;98950.31;4998996;28;20033;-48
2022/01/23 10:54:15;;;;;;;19.40;11.00;;;7.00;99.90;;;6.37;92.49;98945.94;4990349;28;20025;-46
2022/01/23 10:56:57;;;;;;;17.42;10.68;;;7.00;99.90;;;6.45;93.69;98944.22;4993825;28;20046;-46
2022/01/23 10:59:24;;;;;;;18.52;11.52;;;7.10;99.90;;;6.52;90.27;98947.75;4998439;28;20030;-48
2022/01/23 11:02:21;;;;;;;16.38;10.48;;;7.20;99.90;;;6.46;91.28;98952.94;4977522;28;20450;-48
2022/01/23 11:05:01;;;;;;;16.17;10.63;;;7.20;99.90;;;6.55;91.91;98953.00;4978404;28;20117;-46
2022/01/23 11:07:30;;;;;;;16.42;10.27;;;7.20;99.90;;;6.60;89.02;98951.25;4974897;28;20033;-47
2022/01/23 11:10:11;;;;;;;15.68;9.68;;;7.30;99.90;;;6.66;89.53;98945.19;4977197;28;20087;-46
2022/01/23 11:18:05;;;;;;;15.38;9.88;;;7.20;99.90;;;6.61;90.07;98942.53;4995456;28;20044;-45
2022/01/23 11:20:48;;;;;;;17.98;10.50;;;7.30;99.90;;;6.62;89.64;98946.94;4993831;28;20045;-47
2022/01/23 11:23:27;;;;;;;19.65;12.85;;;7.30;99.90;;;6.77;88.09;98937.34;4991865;28;20038;-46
2022/01/23 11:25:52;;;;;;;19.83;11.70;;;7.30;99.90;;;6.64;87.40;98936.41;4997205;28;20037;-47
2022/01/23 11:28:19;;;;;;;17.95;10.60;;;7.30;99.90;;;6.75;87.90;98933.81;4991086;28;20363;-45
2022/01/23 11:30:48;;;;;;;18.48;11.23;;;7.30;99.90;;;6.69;86.57;98935.59;4993756;28;20487;-45
2022/01/23 11:33:18;;;;;;;19.13;12.15;;;7.30;99.90;;;6.63;87.05;98940.78;4993756;28;20036;-48
2022/01/23 11:35:47;;;;;;;17.27;11.60;;;7.30;99.90;;;6.71;88.77;98934.69;4997737;28;23272;-48
2022/01/23 11:38:17;;;;;;;18.42;10.73;;;7.30;99.90;;;6.73;88.73;98930.34;4992670;28;20044;-48
2022/01/23 11:54:40;;;;;;;13.20;8.50;;;7.50;99.90;;;6.97;84.08;98911.16;4955010;28;20066;-45
2022/01/23 11:57:34;;;;;;;11.02;7.10;;;7.50;99.90;;;6.88;82.34;98917.28;4996417;28;20065;-48
2022/01/23 12:00:11;;;;;;;12.45;7.82;;;7.60;99.90;;;6.88;83.86;98910.28;5001245;28;20088;-49
2022/01/23 12:02:40;;;;;;;12.18;7.65;;;7.60;99.90;;;6.89;84.00;98903.28;5000477;28;20026;-48
2022/01/23 12:05:16;;;;;;;13.52;9.02;;;7.60;99.90;;;6.96;82.08;98910.28;4998634;28;20542;-46
2022/01/23 12:07:45;;;;;;;12.27;8.00;;;7.60;99.90;;;6.92;82.81;98908.53;4996437;28;20046;-49
2022/01/23 12:10:15;;;;;;;15.40;9.27;;;7.60;99.90;;;6.82;84.73;98906.75;4996975;28;20040;-47
2022/01/23 12:12:42;;;;;;;18.77;10.18;;;7.60;99.90;;;6.79;84.25;98910.25;4992046;28;20112;-46
2022/01/23 12:18:25;;;;;;;17.33;10.55;;;7.40;99.90;;;6.69;82.82;98903.22;4993430;28;20133;-48
2022/01/23 12:20:52;;;;;;;17.40;9.70;;;7.30;99.90;;;6.73;84.36;98905.00;4988726;28;20038;-48
2022/01/23 12:23:18;;;;;;;15.75;9.90;;;7.30;99.90;;;6.75;85.26;98894.50;4997773;28;20038;-46
2022/01/23 12:25:53;;;;;;;16.95;10.55;;;7.40;99.90;;;6.81;85.53;98897.16;4996595;28;20116;-46
2022/01/23 12:28:31;;;;;;;16.48;9.82;;;7.40;99.90;;;6.84;85.43;98891.91;4994650;28;20034;-46
2022/01/23 12:31:01;;;;;;;15.73;10.32;;;7.50;99.90;;;6.94;84.06;98905.91;4995468;28;20407;-47
2022/01/23 12:33:31;;;;;;;16.48;10.07;;;7.50;99.90;;;6.89;82.55;98895.41;4978700;28;20034;-49
2022/01/23 12:36:24;;;;;;;13.40;9.02;;;7.60;99.90;;;6.85;82.47;98894.53;4993197;28;20045;-46
2022/01/23 12:39:18;;;;;;;13.80;8.65;;;7.50;99.90;;;6.90;83.39;98885.81;4985570;28;20070;-46
2022/01/23 12:41:47;;;;;;;18.52;11.38;;;7.50;99.90;;;6.86;84.29;98884.94;4997729;28;20075;-44
2022/01/23 12:44:28;;;;;;;17.70;10.80;;;7.50;99.90;;;6.76;82.99;98884.00;4995919;28;20121;-46
2022/01/23 12:47:04;;;;;;;16.83;10.07;;;7.50;99.90;;;6.68;84.12;98881.38;4992634;28;20128;-48
2022/01/23 12:49:47;;;;;;;17.42;11.25;;;7.40;99.90;;;6.66;84.63;98877.88;4976955;28;20025;-46
2022/01/23 12:52:17;;;;;;;17.98;10.77;;;7.30;99.90;;;6.52;85.05;98869.13;4998868;28;20387;-47
2022/01/23 12:54:50;;;;;;;16.33;10.20;;;7.30;99.90;;;6.48;85.49;98881.34;4994768;28;20060;-46
2022/01/23 12:57:24;;;;;;;16.52;9.57;;;7.20;99.90;;;6.46;86.01;98876.94;5000452;28;20038;-47
2022/01/23 13:00:03;;;;;;;12.73;8.52;;;7.20;99.90;;;6.37;85.14;98879.53;5000010;28;20038;-47
2022/01/23 13:02:39;;;;;;;12.20;8.02;;;7.10;99.90;;;6.37;82.88;98890.00;4974850;28;20214;-47
2022/01/23 13:05:05;;;;;;;13.15;7.95;;;7.00;99.90;;;6.28;82.98;98896.09;4993956;28;20073;-48
2022/01/23 13:07:48;;;;;;;16.67;8.95;;;7.00;99.90;;;6.20;81.35;98887.34;5001245;28;20033;-43
2022/01/23 13:15:42;;;;;;;12.25;6.72;;;6.70;99.90;;;6.07;80.58;98889.03;5002110;28;20030;-46
2022/01/23 13:32:17;;;;;;;8.55;5.30;;;6.60;99.90;;;6.06;81.55;98871.56;4998623;28;20161;-47
2022/01/23 13:34:56;;;;;;;7.18;4.63;;;6.70;99.90;;;6.13;77.67;98857.63;4998207;28;20503;-47
2022/01/23 13:37:30;;;;;;;8.30;3.40;;;6.70;99.90;;;6.10;75.71;98860.22;4998073;28;20079;-49
2022/01/23 13:40:04;;;;;;;4.22;2.83;;;6.80;99.90;;;6.15;74.37;98862.88;4997583;28;20030;-44
2022/01/23 13:51:55;;;;;;;6.00;2.38;;;6.80;99.90;;;6.16;71.54;98849.78;4990288;28;20034;-46
2022/01/23 14:02:35;;;;;;;5.55;2.72;;;6.80;99.90;;;6.07;73.48;98852.38;4985566;28;20667;-46
2022/01/23 14:05:17;;;;;;;5.47;3.13;;;6.80;99.90;;;5.83;72.93;98845.22;4978931;28;20459;-48
2022/01/23 14:07:53;;;;;;;3.97;2.58;;;6.60;99.90;;;5.86;74.06;98845.25;4977439;28;20092;-44
2022/01/23 14:10:21;;;;;;;6.50;2.40;;;6.50;99.90;;;5.74;71.93;98848.66;4988372;28;20512;-46
2022/01/23 14:12:51;;;;;;;3.83;2.00;;;6.50;99.90;;;5.75;71.17;98845.19;4988822;28;20050;-49